Time;durP1;ratioP1;P1;durP2;ratioP2;P2;SDS_P1;SDS_P2;PMS_P1;PMS_P2;Temp;Humidity;BMP_temperature;BMP_pressure;BME280_temperature;BME280_humidity;BME280_pressure;Samples;Min_cycle;Max_cycle;Signal;HPM_P1;HPM_P2
2022/12/07 00:02:37;;;;;;;7.67;6.75;;;;;;;2.92;90.29;100327.63;1659080;84;21549;-78
2022/12/07 00:05:22;;;;;;;8.58;7.35;;;;;;;2.93;90.34;100325.52;1658649;84;20915;-78
2022/12/07 00:08:07;;;;;;;9.93;6.60;;;;;;;2.94;90.31;100329.78;1674878;84;20923;-78
2022/12/07 00:10:53;;;;;;;9.08;6.45;;;;;;;2.93;90.28;100329.34;1666013;84;21546;-78
2022/12/07 00:13:38;;;;;;;12.57;6.63;;;;;;;2.94;90.34;100330.20;1675529;83;21400;-78
2022/12/07 00:16:27;;;;;;;10.97;7.50;;;;;;;2.95;90.35;100330.63;1656758;84;20915;-78
2022/12/07 00:19:13;;;;;;;8.40;6.62;;;;;;;2.96;90.32;100334.90;1657851;85;21299;-78
2022/12/07 00:21:58;;;;;;;9.85;7.12;;;;;;;2.96;90.33;100323.41;1657015;85;20931;-78
2022/12/07 00:24:43;;;;;;;9.58;6.92;;;;;;;2.97;90.34;100327.67;1674687;85;21328;-78
2022/12/07 00:27:28;;;;;;;10.72;6.87;;;;;;;2.98;90.34;100326.83;1658525;85;20919;-78
2022/12/07 00:30:14;;;;;;;9.18;8.10;;;;;;;3.00;90.36;100325.16;1689362;84;21332;-78
2022/12/07 00:33:00;;;;;;;9.50;7.33;;;;;;;2.99;90.34;100317.05;1659089;84;20925;-78
2022/12/07 00:35:45;;;;;;;12.87;8.53;;;;;;;2.98;90.37;100316.20;1673395;85;20962;-78
2022/12/07 00:38:33;;;;;;;11.70;8.40;;;;;;;3.00;90.40;100314.94;1669596;83;21350;-78
2022/12/07 00:41:21;;;;;;;10.88;7.83;;;;;;;3.03;90.41;100315.39;1658174;85;20929;-78
2022/12/07 00:44:06;;;;;;;11.63;9.00;;;;;;;3.04;90.41;100315.83;1689343;84;20905;-78
2022/12/07 00:46:51;;;;;;;10.53;8.45;;;;;;;3.06;90.40;100314.14;1681965;83;20986;-78
2022/12/07 00:49:36;;;;;;;10.25;8.20;;;;;;;3.06;90.40;100308.61;1656196;84;20970;-78
2022/12/07 00:52:21;;;;;;;9.93;8.05;;;;;;;3.08;90.39;100307.34;1654038;83;20944;-78
2022/12/07 00:55:07;;;;;;;10.98;8.50;;;;;;;3.09;90.40;100307.78;1664030;83;20923;-78
2022/12/07 00:57:52;;;;;;;9.50;7.90;;;;;;;3.10;90.41;100306.52;1659643;83;20907;-78
2022/12/07 01:00:39;;;;;;;9.78;8.20;;;;;;;3.12;90.40;100304.80;1665679;85;20958;-78
2022/12/07 01:03:24;;;;;;;10.72;8.90;;;;;;;3.11;90.38;100300.99;1678270;85;20909;-78
2022/12/07 01:06:09;;;;;;;9.70;8.70;;;;;;;3.13;90.41;100304.39;1668952;84;20903;-78
2022/12/07 01:08:55;;;;;;;10.90;9.38;;;;;;;3.13;90.36;100306.52;1667527;83;20949;-78
2022/12/07 01:11:40;;;;;;;10.20;8.30;;;;;;;3.12;90.38;100303.53;1669828;84;21018;-78
2022/12/07 01:14:24;;;;;;;11.43;8.40;;;;;;;3.11;90.38;100305.68;1688289;84;20942;-78
2022/12/07 01:17:09;;;;;;;7.62;6.78;;;;;;;3.13;90.37;100307.80;1702668;83;21026;-78
2022/12/07 01:19:55;;;;;;;7.75;6.97;;;;;;;3.11;90.32;100296.73;1672101;83;21412;-78
2022/12/07 01:22:41;;;;;;;8.43;7.53;;;;;;;3.10;90.32;100295.45;1679599;83;20906;-78
2022/12/07 01:25:26;;;;;;;8.43;7.12;;;;;;;3.11;90.33;100300.99;1679335;84;20893;-78
2022/12/07 01:28:10;;;;;;;7.90;7.03;;;;;;;3.11;90.34;100298.44;1689362;83;20966;-78
2022/12/07 01:31:03;;;;;;;10.18;8.18;;;;;;;3.12;90.33;100291.21;1686164;84;20946;-78
2022/12/07 01:33:53;;;;;;;8.78;7.45;;;;;;;3.11;90.27;100292.05;1678304;84;21316;-78
2022/12/07 01:36:38;;;;;;;10.82;7.62;;;;;;;3.11;90.33;100293.33;1666157;84;20997;-79
2022/12/07 01:39:23;;;;;;;9.25;7.40;;;;;;;3.11;90.30;100288.22;1678482;83;21467;-78
2022/12/07 01:42:11;;;;;;;9.83;8.35;;;;;;;3.10;90.27;100292.89;1674925;83;20998;-78
2022/12/07 01:45:37;;;;;;;10.55;7.40;;;;;;;3.09;90.32;100292.03;1688366;84;21447;-78
2022/12/07 01:48:37;;;;;;;11.73;7.35;;;;;;;3.11;90.32;100294.19;1678699;83;20985;-78
2022/12/07 01:51:21;;;;;;;10.25;8.35;;;;;;;3.09;90.28;100297.14;1658293;84;21806;-78
2022/12/07 01:54:06;;;;;;;13.90;8.93;;;;;;;3.10;90.32;100294.17;1697774;83;21530;-78
2022/12/07 01:56:55;;;;;;;16.30;9.70;;;;;;;3.10;90.33;100291.20;1672421;85;21382;-78
2022/12/07 01:59:40;;;;;;;10.80;8.73;;;;;;;3.11;90.33;100289.50;1671934;81;20974;-78
2022/12/07 02:02:34;;;;;;;12.47;8.25;;;;;;;3.12;90.35;100289.48;1663422;84;20954;-78
2022/12/07 02:05:20;;;;;;;12.68;9.55;;;;;;;3.15;90.37;100283.12;1671632;82;21061;-78
2022/12/07 02:08:05;;;;;;;12.50;8.48;;;;;;;3.14;90.29;100285.23;1691291;83;20938;-78
2022/12/07 02:10:50;;;;;;;14.75;8.83;;;;;;;3.14;90.29;100278.00;1665367;83;20946;-78
2022/12/07 02:13:38;;;;;;;12.70;8.53;;;;;;;3.14;90.28;100275.44;1669813;83;20934;-78
2022/12/07 02:16:45;;;;;;;13.80;8.78;;;;;;;3.15;90.33;100268.22;1667106;84;20950;-78
2022/12/07 02:19:53;;;;;;;13.80;8.35;;;;;;;3.16;90.33;100269.50;1676982;84;21046;-78
2022/12/07 02:23:28;;;;;;;10.45;8.38;;;;;;;3.18;90.33;100265.69;1663208;84;21021;-78
2022/12/07 02:26:34;;;;;;;9.45;7.75;;;;;;;3.18;90.32;100263.98;1650343;84;20952;-78
2022/12/07 02:29:28;;;;;;;10.38;6.70;;;;;;;3.18;90.29;100254.19;1662366;84;20980;-78
2022/12/07 02:32:42;;;;;;;9.75;6.97;;;;;;;3.16;90.25;100259.28;1657056;83;20911;-78
2022/12/07 02:35:32;;;;;;;8.93;6.35;;;;;;;3.14;90.25;100255.86;1665377;84;20986;-78
2022/12/07 02:38:36;;;;;;;13.32;7.37;;;;;;;3.12;90.20;100261.37;1686951;84;21029;-77
2022/12/07 02:41:35;;;;;;;11.12;7.05;;;;;;;3.10;90.17;100263.52;1659876;84;21081;-77
2022/12/07 02:44:24;;;;;;;8.88;6.62;;;;;;;3.06;90.16;100260.50;1657616;84;21069;-78
2022/12/07 02:47:14;;;;;;;8.60;6.35;;;;;;;3.03;90.15;100267.72;1671617;84;21061;-78
2022/12/07 02:49:59;;;;;;;10.10;7.00;;;;;;;2.99;90.11;100268.53;1675939;84;21025;-77
2022/12/07 02:52:44;;;;;;;7.87;5.87;;;;;;;2.94;90.08;100260.83;1645675;85;21057;-77
2022/12/07 02:55:37;;;;;;;6.00;5.35;;;;;;;2.93;90.11;100258.26;1654969;84;21072;-77
2022/12/07 02:58:51;;;;;;;7.70;5.62;;;;;;;2.87;89.99;100259.05;1658635;85;21055;-77
2022/12/07 03:02:03;;;;;;;6.10;5.35;;;;;;;2.83;90.02;100259.87;1663413;83;21295;-77
2022/12/07 03:05:25;;;;;;;7.30;5.95;;;;;;;2.78;89.97;100260.66;1654484;85;21112;-78
2022/12/07 03:08:17;;;;;;;6.05;5.35;;;;;;;2.73;89.96;100255.52;1671121;83;21659;-79
2022/12/07 03:11:11;;;;;;;7.92;5.80;;;;;;;2.65;89.91;100260.54;1660359;84;21061;-78
2022/12/07 03:14:07;;;;;;;7.70;5.50;;;;;;;2.60;89.90;100269.84;1655476;85;21089;-78
2022/12/07 03:17:18;;;;;;;6.15;4.92;;;;;;;2.55;89.91;100266.84;1658275;83;21053;-78
2022/12/07 03:20:07;;;;;;;5.10;4.60;;;;;;;2.50;89.89;100266.78;1654077;85;21462;-78
2022/12/07 03:22:54;;;;;;;7.25;5.03;;;;;;;2.50;89.99;100271.89;1654996;85;21056;-78
2022/12/07 03:25:44;;;;;;;6.17;5.17;;;;;;;2.47;89.95;100277.37;1658735;85;21156;-78
2022/12/07 03:28:33;;;;;;;5.60;4.92;;;;;;;2.45;89.92;100276.50;1658186;85;21124;-78
2022/12/07 03:31:35;;;;;;;5.67;4.47;;;;;;;2.41;89.84;100273.06;1654847;84;21719;-78
2022/12/07 03:34:34;;;;;;;6.08;4.72;;;;;;;2.40;89.87;100273.05;1671328;84;20976;-78
2022/12/07 03:37:24;;;;;;;7.58;4.42;;;;;;;2.38;89.87;100267.92;1673132;82;21048;-78
2022/12/07 03:40:20;;;;;;;4.60;4.20;;;;;;;2.36;89.88;100265.77;1673855;83;21164;-78
2022/12/07 03:43:05;;;;;;;;;;;;;;;2.37;89.86;100261.53;1667490;85;21989;-78
2022/12/07 03:46:30;;;;;;;4.70;4.22;;;;;;;2.35;89.85;100258.95;1665916;85;20143;-78
2022/12/07 03:49:32;;;;;;;4.55;3.92;;;;;;;2.35;89.88;100255.13;1653227;84;21147;-78
2022/12/07 03:52:24;;;;;;;4.58;4.10;;;;;;;2.36;89.84;100250.88;1622781;86;21151;-77
2022/12/07 03:55:27;;;;;;;5.95;4.25;;;;;;;2.37;89.86;100246.22;1623253;86;21118;-78
2022/12/07 03:58:19;;;;;;;4.87;4.40;;;;;;;2.38;89.89;100241.55;1626594;86;21099;-78
2022/12/07 04:01:04;;;;;;;4.87;4.37;;;;;;;2.38;89.88;100241.13;1587798;88;21095;-78
2022/12/07 04:03:49;;;;;;;4.67;4.20;;;;;;;2.39;89.88;100236.89;1650847;85;21610;-77
2022/12/07 04:06:34;;;;;;;5.50;4.45;;;;;;;2.39;89.83;100232.64;1657680;85;21594;-78
2022/12/07 04:09:20;;;;;;;4.58;4.17;;;;;;;2.38;89.81;100230.92;1657757;85;21586;-78
2022/12/07 04:12:05;;;;;;;5.30;4.37;;;;;;;2.40;89.84;100221.59;1660864;85;20992;-78
2022/12/07 04:14:50;;;;;;;5.37;4.87;;;;;;;2.42;89.88;100218.64;1662755;85;20952;-78
2022/12/07 04:17:35;;;;;;;6.28;4.10;;;;;;;2.44;89.85;100222.48;1657373;84;436731;-78
2022/12/07 04:20:19;;;;;;;4.70;4.30;;;;;;;2.46;89.87;100220.38;1632790;86;21414;-78
2022/12/07 04:23:04;;;;;;;5.47;4.10;;;;;;;2.48;89.85;100228.05;1659857;83;21603;-78
2022/12/07 04:25:49;;;;;;;5.50;4.33;;;;;;;2.48;89.83;100240.39;1656276;84;21394;-78
2022/12/07 04:28:34;;;;;;;6.40;4.28;;;;;;;2.50;89.86;100236.16;1658966;85;21392;-78
2022/12/07 04:31:19;;;;;;;4.92;4.40;;;;;;;2.47;89.81;100236.13;1661685;84;21551;-76
2022/12/07 04:34:05;;;;;;;4.50;4.10;;;;;;;2.48;89.84;100232.73;1657196;83;20952;-78
2022/12/07 04:36:50;;;;;;;4.58;4.00;;;;;;;2.48;89.83;100230.19;1657705;85;28548;-78
2022/12/07 04:39:35;;;;;;;4.95;4.45;;;;;;;2.49;89.89;100226.80;1656244;85;20964;-77
2022/12/07 04:42:20;;;;;;;7.37;4.67;;;;;;;2.51;89.89;100217.88;1663736;85;21559;-78
2022/12/07 04:45:07;;;;;;;5.20;4.70;;;;;;;2.51;89.87;100217.46;1656640;85;21005;-78
2022/12/07 04:47:51;;;;;;;;;;;;;;;2.53;89.88;100213.65;1638047;86;20925;-79
2022/12/07 04:50:38;;;;;;;4.87;4.40;;;;;;;2.54;89.85;100216.63;1601484;86;20173;-78
2022/12/07 04:53:22;;;;;;;5.08;4.58;;;;;;;2.55;89.86;100214.52;1615154;87;21640;-78
2022/12/07 04:56:07;;;;;;;5.35;4.85;;;;;;;2.55;89.89;100205.16;1655147;85;21415;-78
2022/12/07 04:58:54;;;;;;;5.97;5.37;;;;;;;2.59;89.90;100211.16;1657812;84;20945;-78
2022/12/07 05:01:38;;;;;;;;;;;;;;;2.59;89.90;100208.19;1663637;83;21342;-78
2022/12/07 05:04:23;;;;;;;6.33;5.13;;;;;;;2.61;89.87;100205.61;1656749;84;20134;-78
2022/12/07 05:07:08;;;;;;;5.97;5.35;;;;;;;2.60;89.84;100204.76;1633143;86;21040;-78
2022/12/07 05:09:53;;;;;;;7.50;6.30;;;;;;;2.61;89.84;100203.06;1639737;85;21047;-78
2022/12/07 05:12:38;;;;;;;5.97;5.35;;;;;;;2.61;89.86;100201.78;1650385;84;20959;-78
2022/12/07 05:15:24;;;;;;;7.35;6.65;;;;;;;2.62;89.86;100200.95;1654019;84;20929;-78
2022/12/07 05:18:08;;;;;;;7.37;6.62;;;;;;;2.62;89.85;100199.25;1653808;85;20988;-78
2022/12/07 05:20:53;;;;;;;7.25;6.62;;;;;;;2.63;89.88;100195.86;1652845;84;20920;-78
2022/12/07 05:23:38;;;;;;;8.20;6.42;;;;;;;2.63;89.85;100195.86;1657019;84;20976;-79
2022/12/07 05:26:23;;;;;;;8.78;7.28;;;;;;;2.66;89.87;100193.75;1652461;85;21338;-79
2022/12/07 05:29:13;;;;;;;7.58;6.87;;;;;;;2.66;89.87;100197.16;1653801;85;20948;-79
2022/12/07 05:31:57;;;;;;;7.30;6.65;;;;;;;2.66;89.85;100196.30;1652551;84;21532;-78
2022/12/07 05:34:42;;;;;;;9.05;7.33;;;;;;;2.65;89.86;100196.73;1661042;83;20964;-79
2022/12/07 05:37:28;;;;;;;8.73;7.83;;;;;;;2.66;89.86;100200.13;1654555;85;20905;-79
2022/12/07 05:40:14;;;;;;;9.33;7.97;;;;;;;2.66;89.82;100193.75;1663863;85;20899;-79
2022/12/07 05:42:59;;;;;;;7.28;6.58;;;;;;;2.66;89.85;100188.65;1661841;84;20936;-79
2022/12/07 05:45:44;;;;;;;8.13;7.22;;;;;;;2.65;89.82;100186.52;1655994;83;21437;-79
2022/12/07 05:48:29;;;;;;;8.95;8.03;;;;;;;2.64;89.81;100187.78;1656055;84;20980;-79
2022/12/07 05:51:14;;;;;;;8.30;7.50;;;;;;;2.64;89.81;100184.80;1652690;85;21539;-79
2022/12/07 05:53:59;;;;;;;8.35;7.45;;;;;;;2.66;89.84;100187.38;1583973;83;5000767;-78
2022/12/07 05:56:44;;;;;;;8.63;7.10;;;;;;;2.64;89.79;100186.08;1643656;84;20974;-78
2022/12/07 05:59:28;;;;;;;9.65;7.25;;;;;;;2.64;89.82;100189.91;1678266;82;21561;-79
2022/12/07 06:02:16;;;;;;;9.73;7.50;;;;;;;2.64;89.81;100182.25;1677962;83;21033;-78
2022/12/07 06:05:01;;;;;;;8.83;7.65;;;;;;;2.64;89.82;100195.44;1664069;84;20999;-78
2022/12/07 06:07:46;;;;;;;9.30;7.85;;;;;;;2.65;89.85;100189.06;1622229;86;20990;-78
2022/12/07 06:10:31;;;;;;;8.75;7.85;;;;;;;2.66;89.85;100187.38;1630219;86;21901;-78
2022/12/07 06:13:16;;;;;;;8.30;7.50;;;;;;;2.67;89.81;100178.88;1649287;84;20979;-78
2022/12/07 06:16:01;;;;;;;8.93;8.03;;;;;;;2.65;89.82;100169.92;1624401;87;21018;-78
2022/12/07 06:18:46;;;;;;;9.25;7.87;;;;;;;2.66;89.82;100163.13;1672348;83;20922;-78
2022/12/07 06:21:30;;;;;;;11.20;8.48;;;;;;;2.65;89.78;100167.38;1664101;82;20927;-78
2022/12/07 06:24:16;;;;;;;9.40;8.50;;;;;;;2.65;89.77;100164.82;1670922;83;21004;-78
2022/12/07 06:27:01;;;;;;;10.45;8.58;;;;;;;2.65;89.77;100167.80;1673121;81;21073;-78
2022/12/07 06:29:46;;;;;;;12.18;8.33;;;;;;;2.64;89.78;100175.87;1670941;83;21966;-78
2022/12/07 06:32:31;;;;;;;8.73;7.83;;;;;;;2.63;89.74;100169.05;1670945;84;20962;-78
2022/12/07 06:35:16;;;;;;;8.40;7.60;;;;;;;2.63;89.76;100173.30;1669145;83;21268;-78
2022/12/07 06:38:01;;;;;;;9.73;8.38;;;;;;;2.61;89.73;100169.46;1669558;83;20926;-78
2022/12/07 06:40:46;;;;;;;9.03;8.05;;;;;;;2.60;89.73;100160.09;1676249;81;20930;-78
2022/12/07 06:43:32;;;;;;;9.00;7.90;;;;;;;2.60;89.72;100166.47;1663031;83;21070;-78
2022/12/07 06:46:17;;;;;;;9.38;8.35;;;;;;;2.59;89.71;100166.07;1669597;83;21975;-78
2022/12/07 06:49:03;;;;;;;11.80;9.23;;;;;;;2.60;89.75;100167.75;1668237;84;21046;-78
2022/12/07 06:51:47;;;;;;;12.28;8.75;;;;;;;2.61;89.75;100166.05;1668309;83;20955;-78
2022/12/07 06:54:33;;;;;;;11.30;8.98;;;;;;;2.62;89.78;100166.06;1669137;84;21574;-78
2022/12/07 06:57:17;;;;;;;9.83;8.50;;;;;;;2.63;89.76;100172.03;1671135;83;21021;-78
2022/12/07 07:00:04;;;;;;;10.85;9.73;;;;;;;2.62;89.72;100160.11;1669588;84;20958;-78
2022/12/07 07:02:49;;;;;;;10.95;9.60;;;;;;;2.63;89.79;100163.95;1652740;84;21540;-78
2022/12/07 07:05:34;;;;;;;10.25;9.13;;;;;;;2.64;89.76;100158.42;1670627;83;20926;-78
2022/12/07 07:08:19;;;;;;;9.08;8.18;;;;;;;2.65;89.75;100157.16;1652086;85;21558;-78
2022/12/07 07:11:05;;;;;;;9.88;8.48;;;;;;;2.65;89.77;100155.89;1658345;83;21464;-78
2022/12/07 07:13:50;;;;;;;9.35;8.35;;;;;;;2.66;89.76;100157.59;1656165;84;23555;-78
2022/12/07 07:16:35;;;;;;;9.25;8.35;;;;;;;2.66;89.71;100155.47;1655433;84;21050;-78
2022/12/07 07:19:20;;;;;;;9.45;8.48;;;;;;;2.66;89.75;100151.63;1656999;84;21333;-78
2022/12/07 07:22:05;;;;;;;8.15;7.33;;;;;;;2.65;89.73;100145.67;1650916;85;21025;-78
2022/12/07 07:24:50;;;;;;;7.90;7.20;;;;;;;2.64;89.71;100150.77;1648649;84;21023;-78
2022/12/07 07:27:35;;;;;;;8.93;7.97;;;;;;;2.63;89.70;100140.98;1647777;85;20971;-78
2022/12/07 07:30:20;;;;;;;8.68;7.80;;;;;;;2.63;89.75;100139.70;1648004;84;20979;-78
2022/12/07 07:33:05;;;;;;;8.73;7.78;;;;;;;2.64;89.72;100136.73;1647978;85;21459;-78
2022/12/07 07:35:50;;;;;;;8.58;7.03;;;;;;;2.62;89.70;100135.86;1647165;84;21452;-78
2022/12/07 07:38:35;;;;;;;8.08;7.28;;;;;;;2.60;89.65;100138.86;1594002;88;21479;-78
2022/12/07 07:41:20;;;;;;;8.00;7.20;;;;;;;2.58;89.66;100136.71;1647726;85;20931;-79
2022/12/07 07:44:05;;;;;;;10.63;7.75;;;;;;;2.55;89.64;100131.16;1650373;85;21543;-78
2022/12/07 07:46:50;;;;;;;7.87;7.17;;;;;;;2.56;89.67;100134.56;1648584;85;20974;-78
2022/12/07 07:49:35;;;;;;;9.75;7.87;;;;;;;2.57;89.71;100138.83;1646095;85;21075;-78
2022/12/07 07:52:20;;;;;;;8.60;6.97;;;;;;;2.58;89.68;100136.29;1647077;85;21075;-78
2022/12/07 07:55:08;;;;;;;7.95;7.22;;;;;;;2.59;89.67;100134.59;1647885;83;21539;-78
2022/12/07 07:57:54;;;;;;;7.92;7.15;;;;;;;2.61;89.69;100129.05;1647171;85;21357;-78
2022/12/07 08:00:39;;;;;;;8.35;7.55;;;;;;;2.64;89.69;100129.08;1647066;84;20975;-78
2022/12/07 08:03:23;;;;;;;7.95;7.15;;;;;;;2.69;89.69;100126.14;1645997;84;21606;-78
2022/12/07 08:06:08;;;;;;;7.35;6.60;;;;;;;2.74;89.71;100122.34;1646339;85;21003;-78
2022/12/07 08:08:53;;;;;;;8.53;6.85;;;;;;;2.78;89.71;100121.53;1647553;84;21540;-78
2022/12/07 08:11:38;;;;;;;7.95;7.15;;;;;;;2.80;89.68;100123.25;1647372;85;21515;-78
2022/12/07 08:14:23;;;;;;;8.13;6.83;;;;;;;2.79;89.62;100127.92;1648958;84;20971;-78
2022/12/07 08:17:08;;;;;;;7.03;6.05;;;;;;;2.79;89.62;100116.43;1646971;84;21003;-78
2022/12/07 08:19:53;;;;;;;7.35;6.60;;;;;;;2.78;89.60;100124.08;1646467;84;21518;-78
2022/12/07 08:22:38;;;;;;;7.28;6.65;;;;;;;2.77;89.60;100115.98;1646031;85;21471;-78
2022/12/07 08:25:23;;;;;;;8.35;6.53;;;;;;;2.77;89.60;100113.44;1647299;84;21550;-78
2022/12/07 08:28:08;;;;;;;7.30;6.70;;;;;;;2.77;89.65;100115.56;1646675;85;20939;-78
2022/12/07 08:31:01;;;;;;;8.30;6.90;;;;;;;2.79;89.67;100113.02;1644744;84;21011;-78
2022/12/07 08:33:48;;;;;;;7.70;7.00;;;;;;;2.79;89.63;100118.98;1647191;84;21590;-78
2022/12/07 08:36:33;;;;;;;7.75;6.42;;;;;;;2.81;89.65;100106.23;1645875;84;20980;-78
2022/12/07 08:39:18;;;;;;;7.75;6.95;;;;;;;2.81;89.63;100110.06;1644496;85;20991;-78
2022/12/07 08:42:03;;;;;;;8.58;6.95;;;;;;;2.81;89.63;100110.06;1647650;84;20979;-78
2022/12/07 08:44:48;;;;;;;8.50;7.58;;;;;;;2.80;89.63;100104.52;1654848;85;20971;-78
2022/12/07 08:47:34;;;;;;;8.63;7.50;;;;;;;2.81;89.60;100104.95;1651499;85;20927;-78
2022/12/07 08:50:20;;;;;;;9.05;8.10;;;;;;;2.80;89.56;100102.83;1653859;85;21008;-78
2022/12/07 08:53:06;;;;;;;8.80;7.90;;;;;;;2.78;89.51;100102.38;1655526;85;21560;-78
2022/12/07 08:55:51;;;;;;;8.93;7.50;;;;;;;2.77;89.56;100104.50;1651943;85;21294;-78
2022/12/07 08:58:38;;;;;;;11.53;7.97;;;;;;;2.74;89.49;100094.27;1651559;85;20934;-78
2022/12/07 09:01:23;;;;;;;7.12;6.40;;;;;;;2.69;89.44;100094.23;1539446;84;10001355;-78
2022/12/07 09:04:08;;;;;;;8.80;7.90;;;;;;;2.66;89.46;100091.23;1653543;84;20987;-78
2022/12/07 09:06:54;;;;;;;8.38;7.50;;;;;;;2.64;89.44;100091.64;1654391;84;21559;-78
2022/12/07 09:09:39;;;;;;;;;;;;;;;2.62;89.41;100086.09;1605113;87;21049;-78
2022/12/07 09:12:24;;;;;;;7.60;6.70;;;;;;;2.58;89.37;100082.70;1616477;85;20195;-78
2022/12/07 09:15:09;;;;;;;8.08;6.85;;;;;;;2.56;89.42;100079.28;1637018;84;20968;-78
2022/12/07 09:17:54;;;;;;;8.15;7.03;;;;;;;2.54;89.41;100080.11;1645235;84;21001;-78
2022/12/07 09:20:39;;;;;;;9.13;7.37;;;;;;;2.51;89.41;100079.66;1655510;83;21757;-78
2022/12/07 09:23:25;;;;;;;9.55;7.87;;;;;;;2.51;89.40;100080.08;1669082;83;21042;-78
2022/12/07 09:26:10;;;;;;;8.68;7.45;;;;;;;2.47;89.36;100077.92;1668624;83;21395;-78
2022/12/07 09:28:55;;;;;;;9.95;8.20;;;;;;;2.45;89.40;100073.23;1668836;84;20946;-78
2022/12/07 09:31:41;;;;;;;10.98;8.68;;;;;;;2.43;89.35;100072.36;1671435;83;20931;-78
2022/12/07 09:34:26;;;;;;;10.37;9.07;;;;;;;2.41;89.34;100071.91;1667901;83;21526;-78
2022/12/07 09:37:11;;;;;;;10.23;8.47;;;;;;;2.38;89.31;100065.52;1662360;83;21209;-77
2022/12/07 09:39:56;;;;;;;11.05;9.13;;;;;;;2.33;89.31;100057.82;1660734;84;21598;-78
2022/12/07 09:42:48;;;;;;;13.25;8.78;;;;;;;2.32;89.37;100056.11;1663116;83;21023;-78
2022/12/07 09:45:36;;;;;;;10.68;9.20;;;;;;;2.32;89.40;100050.59;1662548;84;21332;-78
2022/12/07 09:48:32;;;;;;;11.30;9.33;;;;;;;2.32;89.39;100042.94;1664413;84;21036;-78
2022/12/07 09:51:23;;;;;;;12.45;9.50;;;;;;;2.31;89.37;100040.37;1665839;83;21525;-78
2022/12/07 09:54:15;;;;;;;12.53;9.88;;;;;;;2.32;89.40;100039.11;1666086;83;20938;-78
2022/12/07 09:57:00;;;;;;;12.13;9.58;;;;;;;2.32;89.36;100037.83;1664096;83;21017;-78
2022/12/07 09:59:45;;;;;;;12.75;10.40;;;;;;;2.31;89.37;100036.13;1673964;83;20972;-78
2022/12/07 10:02:35;;;;;;;13.53;11.03;;;;;;;2.31;89.40;100028.47;1661006;84;20910;-78
2022/12/07 10:05:31;;;;;;;14.13;11.03;;;;;;;2.35;89.44;100022.97;1661563;83;20978;-78
2022/12/07 10:08:17;;;;;;;14.65;10.95;;;;;;;2.37;89.40;100022.56;1659478;83;20975;-78
2022/12/07 10:11:03;;;;;;;13.83;11.20;;;;;;;2.36;89.36;100023.83;1662208;83;21449;-78
2022/12/07 10:13:56;;;;;;;14.70;11.20;;;;;;;2.37;89.38;100016.61;1663756;83;21030;-78
2022/12/07 10:16:42;;;;;;;11.15;9.83;;;;;;;2.37;89.39;100018.73;1665773;84;21553;-78
2022/12/07 10:19:31;;;;;;;14.58;11.57;;;;;;;2.36;89.33;100009.80;1661536;83;21053;-78
2022/12/07 10:22:17;;;;;;;13.30;11.68;;;;;;;2.34;89.32;100003.41;1669111;83;21513;-78
2022/12/07 10:25:18;;;;;;;16.35;13.05;;;;;;;2.33;89.34;100003.83;1662502;83;21424;-78
2022/12/07 10:28:11;;;;;;;13.40;11.48;;;;;;;2.37;89.43;100006.41;1662569;83;21529;-78
2022/12/07 10:31:04;;;;;;;15.03;11.33;;;;;;;2.38;89.39;99999.18;1664247;83;21080;-78
2022/12/07 10:33:54;;;;;;;15.00;11.20;;;;;;;2.40;89.41;99991.11;1647088;83;21018;-78
2022/12/07 10:36:39;;;;;;;14.60;11.53;;;;;;;2.42;89.43;99991.98;1664885;83;20911;-78
2022/12/07 10:39:24;;;;;;;16.67;11.53;;;;;;;2.44;89.45;99986.47;1663330;83;21261;-78
2022/12/07 10:42:19;;;;;;;14.85;11.80;;;;;;;2.45;89.42;99986.90;1659583;84;20962;-78
2022/12/07 10:45:15;;;;;;;15.53;11.50;;;;;;;2.47;89.43;99989.89;1662033;83;20923;-78
2022/12/07 10:48:23;;;;;;;16.93;10.98;;;;;;;2.46;89.40;99979.25;1660466;83;21334;-78
2022/12/07 10:51:33;;;;;;;13.55;11.50;;;;;;;2.50;89.45;99977.58;1610223;85;21405;-78
2022/12/07 10:54:55;;;;;;;12.95;10.40;;;;;;;2.50;89.42;99979.70;1663172;84;21022;-78
2022/12/07 10:58:03;;;;;;;13.85;9.98;;;;;;;2.48;89.38;99971.19;1661894;84;20935;-78
2022/12/07 11:01:06;;;;;;;16.73;10.70;;;;;;;2.49;89.44;99973.31;1660509;83;20966;-78
2022/12/07 11:04:24;;;;;;;13.95;9.98;;;;;;;2.48;89.38;99969.91;1642171;84;20999;-78
2022/12/07 11:07:24;;;;;;;11.88;9.95;;;;;;;2.46;89.34;99961.81;1660885;83;21002;-78
2022/12/07 11:10:29;;;;;;;10.95;9.68;;;;;;;2.43;89.33;99959.24;1661238;83;21467;-78
2022/12/07 11:13:30;;;;;;;10.30;9.13;;;;;;;2.42;89.40;99960.94;1660478;83;21042;-78
2022/12/07 11:16:26;;;;;;;12.37;9.75;;;;;;;2.40;89.34;99949.88;1642582;83;20919;-78
2022/12/07 11:19:37;;;;;;;13.83;9.25;;;;;;;2.40;89.40;99946.05;1666374;84;21558;-78
2022/12/07 11:22:27;;;;;;;11.33;9.05;;;;;;;2.37;89.33;99946.45;1660860;83;21942;-78
2022/12/07 11:25:41;;;;;;;9.63;8.58;;;;;;;2.34;89.35;99943.45;1666338;82;21444;-78
2022/12/07 11:29:04;;;;;;;9.88;8.58;;;;;;;2.35;89.35;99944.31;1635965;85;21061;-78
2022/12/07 11:32:33;;;;;;;10.05;8.68;;;;;;;2.34;89.40;99939.63;1668651;83;21488;-78
2022/12/07 11:35:23;;;;;;;8.80;7.90;;;;;;;2.36;89.39;99933.27;1664563;83;21510;-78
2022/12/07 11:38:19;;;;;;;12.03;8.70;;;;;;;2.37;89.41;99932.00;1664214;83;20983;-78
2022/12/07 11:41:15;;;;;;;9.73;8.28;;;;;;;2.38;89.41;99933.70;1650169;83;21006;-78
2022/12/07 11:44:08;;;;;;;9.78;8.83;;;;;;;2.40;89.43;99923.50;1665826;83;21415;-78
2022/12/07 11:47:24;;;;;;;7.90;7.10;;;;;;;2.39;89.34;99925.20;1668447;84;20958;-78
2022/12/07 11:50:29;;;;;;;10.58;8.05;;;;;;;2.37;89.33;99925.62;1654911;83;20973;-78
2022/12/07 11:53:39;;;;;;;9.88;7.83;;;;;;;2.39;89.37;99926.48;1663714;84;21328;-78
2022/12/07 11:56:27;;;;;;;9.68;8.33;;;;;;;2.40;89.35;99920.95;1668815;84;20918;-78
2022/12/07 11:59:29;;;;;;;8.13;7.33;;;;;;;2.42;89.40;99925.64;1644017;84;21029;-78
2022/12/07 12:02:25;;;;;;;10.08;7.97;;;;;;;2.43;89.40;99923.52;1657592;84;21733;-78
2022/12/07 12:05:21;;;;;;;8.25;7.25;;;;;;;2.45;89.39;99920.56;1664211;83;21041;-78
2022/12/07 12:08:16;;;;;;;8.15;7.25;;;;;;;2.49;89.43;99924.41;1668166;84;20998;-78
2022/12/07 12:11:12;;;;;;;8.75;7.85;;;;;;;2.51;89.45;99914.22;1662525;84;21011;-78
2022/12/07 12:14:05;;;;;;;9.45;8.40;;;;;;;2.53;89.40;99911.25;1665392;84;21721;-78
2022/12/07 12:17:20;;;;;;;8.40;7.42;;;;;;;2.54;89.42;99912.53;1674561;83;20990;-78
2022/12/07 12:20:31;;;;;;;9.90;8.15;;;;;;;2.53;89.35;99913.38;1670106;83;20942;-78
2022/12/07 12:23:39;;;;;;;9.50;8.35;;;;;;;2.52;89.33;99906.99;1635759;86;21027;-78
2022/12/07 12:26:28;;;;;;;10.18;8.58;;;;;;;2.51;89.39;99906.56;1660965;83;21031;-78
2022/12/07 12:29:41;;;;;;;11.60;9.20;;;;;;;2.54;89.41;99909.13;1660436;84;21465;-78
2022/12/07 12:32:43;;;;;;;10.95;8.70;;;;;;;2.54;89.39;99906.16;1665479;83;21044;-78
2022/12/07 12:35:33;;;;;;;10.40;9.15;;;;;;;2.56;89.39;99903.61;1664990;82;21867;-78
2022/12/07 12:38:34;;;;;;;10.10;8.98;;;;;;;2.55;89.37;99904.45;1668678;84;20911;-78
2022/12/07 12:44:39;;;;;;;11.40;9.08;;;;;;;2.56;89.40;99904.47;1667608;83;21451;-78
2022/12/07 12:47:54;;;;;;;9.80;8.75;;;;;;;2.56;89.38;99893.41;1655354;83;21404;-79
2022/12/07 12:50:39;;;;;;;9.00;7.92;;;;;;;2.58;89.45;99892.56;1670894;84;21352;-78
2022/12/07 12:53:26;;;;;;;8.25;7.45;;;;;;;2.61;89.44;99893.82;1663018;84;21494;-77
2022/12/07 12:56:24;;;;;;;8.68;7.78;;;;;;;2.63;89.46;99893.83;1671029;84;21046;-78
2022/12/07 12:59:33;;;;;;;9.28;7.33;;;;;;;2.61;89.38;99893.82;1671423;83;20983;-78
2022/12/07 13:02:36;;;;;;;7.92;7.12;;;;;;;2.62;89.42;99900.63;1670676;83;21455;-77
2022/12/07 13:05:23;;;;;;;8.48;7.35;;;;;;;2.61;89.37;99897.65;1669784;84;21375;-78
2022/12/07 13:08:18;;;;;;;8.55;7.65;;;;;;;2.62;89.42;99899.36;1663808;83;20970;-78
2022/12/07 13:11:37;;;;;;;7.75;6.95;;;;;;;2.60;89.38;99901.05;1666823;84;20957;-78
2022/12/07 13:14:46;;;;;;;7.90;7.10;;;;;;;2.60;89.34;99901.50;1664339;83;20946;-78
2022/12/07 13:17:39;;;;;;;6.42;5.67;;;;;;;2.61;89.42;99904.45;1668886;83;21449;-78
2022/12/07 13:20:51;;;;;;;6.70;6.08;;;;;;;2.61;89.34;99903.17;1677583;83;21038;-77
2022/12/07 13:23:50;;;;;;;7.10;5.85;;;;;;;2.57;89.33;99908.72;1669835;83;21412;-77
2022/12/07 13:26:37;;;;;;;6.03;5.42;;;;;;;2.55;89.30;99912.11;1673389;84;20943;-78